createdAt,value
2019-01-13T00:01:22.133Z,22.17
2019-01-13T00:04:50.077Z,27.57
2019-01-13T00:08:15.643Z,21.67
2019-01-13T00:11:41.233Z,21.43
2019-01-13T00:15:07.574Z,21.30
2019-01-13T00:18:36.053Z,32.93
2019-01-13T00:22:01.656Z,24.33
2019-01-13T00:25:27.245Z,31.83
2019-01-13T00:28:52.866Z,25.43
2019-01-13T00:32:18.423Z,22.93
2019-01-13T00:35:43.996Z,27.13
2019-01-13T00:39:10.404Z,31.67
2019-01-13T00:42:35.921Z,27.83
2019-01-13T00:46:01.529Z,26.97
2019-01-13T00:49:27.335Z,30.90
2019-01-13T00:52:52.903Z,33.03
2019-01-13T00:56:18.511Z,30.27
2019-01-13T00:59:44.130Z,29.30
2019-01-13T01:03:09.680Z,25.87
2019-01-13T01:06:35.300Z,30.50
2019-01-13T01:10:00.875Z,24.97
2019-01-13T01:13:26.511Z,27.57
2019-01-13T01:16:52.056Z,26.60
2019-01-13T01:20:19.183Z,28.70
2019-01-13T01:23:44.804Z,33.63
2019-01-13T01:27:10.628Z,33.73
2019-01-13T01:30:36.143Z,32.73
2019-01-13T01:34:01.746Z,27.67
2019-01-13T01:37:27.341Z,27.00
2019-01-13T01:40:52.884Z,25.33
2019-01-13T01:44:18.437Z,28.43
2019-01-13T01:47:43.990Z,30.13
2019-01-13T01:51:09.564Z,30.87
2019-01-13T01:54:35.125Z,31.63
2019-01-13T01:58:00.719Z,30.10
2019-01-13T02:01:26.304Z,34.47
2019-01-13T02:04:51.885Z,32.40
2019-01-13T02:08:17.454Z,29.53
2019-01-13T02:11:43.060Z,35.77
2019-01-13T02:15:12.481Z,28.17
2019-01-13T02:18:38.055Z,30.80
2019-01-13T02:22:03.863Z,41.37
2019-01-13T02:25:30.448Z,34.83
2019-01-13T02:28:56.078Z,30.20
2019-01-13T02:32:21.743Z,31.20
2019-01-13T02:35:47.333Z,39.97
2019-01-13T02:39:12.895Z,27.03
2019-01-13T02:42:38.537Z,30.67
2019-01-13T02:46:04.099Z,29.33
2019-01-13T02:49:29.676Z,27.70
2019-01-13T02:52:55.599Z,26.73
2019-01-13T02:56:22.419Z,27.33
2019-01-13T02:59:47.980Z,25.33
2019-01-13T03:03:13.515Z,27.37
2019-01-13T03:06:39.076Z,25.63
2019-01-13T03:10:06.522Z,24.13
2019-01-13T03:13:32.367Z,27.13
2019-01-13T03:16:57.877Z,29.70
2019-01-13T03:20:23.650Z,33.10
2019-01-13T03:23:49.249Z,32.30
2019-01-13T03:27:14.774Z,34.43
2019-01-13T03:30:40.605Z,34.13
2019-01-13T03:34:06.157Z,31.67
2019-01-13T03:37:31.711Z,32.93
2019-01-13T03:40:57.583Z,31.53
2019-01-13T03:44:23.161Z,34.40
2019-01-13T03:47:48.702Z,30.03
2019-01-13T03:51:14.270Z,31.83
2019-01-13T03:54:39.835Z,32.17
2019-01-13T03:58:05.401Z,38.57
2019-01-13T04:01:30.922Z,34.43
2019-01-13T04:04:56.987Z,39.27
2019-01-13T04:08:22.646Z,35.63
2019-01-13T04:11:48.230Z,36.67
2019-01-13T04:15:39.687Z,39.63
2019-01-13T04:19:05.272Z,41.13
2019-01-13T04:22:30.791Z,40.07
2019-01-13T04:25:56.379Z,40.43
2019-01-13T04:29:22.224Z,44.50
2019-01-13T04:32:47.809Z,42.50
2019-01-13T04:36:13.365Z,41.83
2019-01-13T04:39:38.941Z,40.87
2019-01-13T04:43:04.488Z,40.07
2019-01-13T04:46:30.048Z,42.23
2019-01-13T04:49:55.851Z,40.00
2019-01-13T04:53:21.435Z,41.73
2019-01-13T04:56:47.257Z,41.57
2019-01-13T05:00:19.908Z,38.97
2019-01-13T05:03:45.829Z,39.77
2019-01-13T05:07:11.453Z,39.10
2019-01-13T05:10:37.328Z,37.53
2019-01-13T05:14:03.248Z,32.40
2019-01-13T05:17:29.088Z,34.97
2019-01-13T05:20:54.657Z,32.60
2019-01-13T05:24:20.243Z,35.40
2019-01-13T05:27:45.782Z,38.43
2019-01-13T05:31:11.414Z,33.10
2019-01-13T05:34:36.967Z,33.53
2019-01-13T05:38:02.587Z,35.27
2019-01-13T05:41:28.152Z,29.03
2019-01-13T05:44:53.729Z,29.07
2019-01-13T05:48:19.644Z,29.83
2019-01-13T05:51:45.206Z,25.37
2019-01-13T05:55:12.211Z,28.30
2019-01-13T05:58:37.786Z,27.23
2019-01-13T06:02:03.379Z,25.67
2019-01-13T06:05:28.982Z,27.93
2019-01-13T06:08:54.655Z,24.13
2019-01-13T06:12:20.398Z,26.50
2019-01-13T06:15:46.104Z,28.23
2019-01-13T06:19:11.836Z,30.20
2019-01-13T06:22:37.618Z,34.57
2019-01-13T06:26:03.418Z,23.07
2019-01-13T06:29:28.923Z,26.70
2019-01-13T06:32:55.214Z,26.20
2019-01-13T06:36:20.767Z,24.67
2019-01-13T06:39:46.319Z,24.50
2019-01-13T06:43:11.855Z,22.37
2019-01-13T06:46:37.549Z,23.57
2019-01-13T06:50:03.599Z,22.90
2019-01-13T06:53:29.172Z,21.63
2019-01-13T06:56:54.983Z,21.37
2019-01-13T07:00:26.313Z,19.30
2019-01-13T07:03:52.627Z,19.80
2019-01-13T07:07:18.205Z,17.97
2019-01-13T07:10:44.129Z,20.00
2019-01-13T07:14:09.929Z,17.27
2019-01-13T07:17:35.518Z,15.83
2019-01-13T07:21:01.173Z,18.77
2019-01-13T07:24:26.746Z,17.33
2019-01-13T07:27:52.405Z,17.73
2019-01-13T07:31:17.961Z,18.93
2019-01-13T07:34:43.743Z,18.23
2019-01-13T07:38:09.319Z,19.43
2019-01-13T07:41:34.889Z,18.97
2019-01-13T07:45:00.593Z,16.03
2019-01-13T07:48:26.157Z,16.30
2019-01-13T07:51:51.708Z,19.70
2019-01-13T07:55:20.149Z,18.33
2019-01-13T07:58:45.739Z,18.40
2019-01-13T08:02:17.684Z,18.00
2019-01-13T08:05:38.856Z,15.60
2019-01-13T08:09:05.610Z,19.03
2019-01-13T08:12:31.217Z,15.27
2019-01-13T08:15:57.123Z,17.53
2019-01-13T08:19:22.929Z,14.77
2019-01-13T08:22:48.529Z,17.30
2019-01-13T08:26:14.138Z,13.43
2019-01-13T08:29:39.682Z,13.33
2019-01-13T08:33:05.209Z,17.53
2019-01-13T08:36:31.032Z,15.03
2019-01-13T08:39:56.590Z,14.73
2019-01-13T08:43:22.132Z,15.90
2019-01-13T08:46:47.678Z,17.03
2019-01-13T08:50:23.351Z,18.23
2019-01-13T08:53:48.932Z,17.83
2019-01-13T08:57:14.701Z,20.97
2019-01-13T09:00:40.342Z,22.13
2019-01-13T09:04:05.891Z,24.73
2019-01-13T09:07:31.439Z,22.57
2019-01-13T09:11:02.530Z,30.67
2019-01-13T09:14:28.099Z,30.43
2019-01-13T09:17:53.653Z,31.93
2019-01-13T09:21:19.192Z,31.43
2019-01-13T09:24:44.768Z,31.23
2019-01-13T09:28:10.767Z,30.83
2019-01-13T09:31:36.593Z,32.83
2019-01-13T09:35:02.163Z,43.60
2019-01-13T09:38:28.006Z,41.67
2019-01-13T09:41:53.590Z,34.77
2019-01-13T09:45:19.160Z,43.93
2019-01-13T09:48:44.778Z,36.53
2019-01-13T09:52:10.277Z,46.97
2019-01-13T09:55:35.839Z,37.00
2019-01-13T09:59:01.646Z,25.43
2019-01-13T10:02:27.178Z,37.97
2019-01-13T10:05:52.737Z,26.03
2019-01-13T10:09:18.313Z,29.93
2019-01-13T10:12:43.906Z,31.27
2019-01-13T10:16:09.492Z,23.70
2019-01-13T10:19:35.073Z,32.17
2019-01-13T10:23:00.662Z,23.87
2019-01-13T10:26:26.254Z,31.63
2019-01-13T10:29:51.810Z,24.27
2019-01-13T10:33:17.370Z,29.73
2019-01-13T10:36:42.986Z,28.10
2019-01-13T10:40:12.503Z,28.20
2019-01-13T10:43:38.080Z,23.83
2019-01-13T10:47:03.629Z,19.60
2019-01-13T10:50:31.312Z,22.70
2019-01-13T10:53:56.851Z,24.70
2019-01-13T10:57:22.522Z,24.50
2019-01-13T11:00:48.364Z,18.77
2019-01-13T11:04:13.902Z,22.57
2019-01-13T11:07:39.438Z,19.97
2019-01-13T11:11:05.291Z,19.57
2019-01-13T11:14:30.870Z,21.10
2019-01-13T11:17:56.458Z,19.33
2019-01-13T11:21:22.045Z,18.30
2019-01-13T11:24:47.597Z,17.07
2019-01-13T11:28:13.177Z,10.73
2019-01-13T11:31:38.723Z,13.27
2019-01-13T11:35:04.388Z,9.33
2019-01-13T11:38:30.007Z,13.77
2019-01-13T11:41:55.533Z,11.30
2019-01-13T11:45:21.149Z,11.20
2019-01-13T11:48:46.734Z,12.63
2019-01-13T11:52:12.291Z,9.90
2019-01-13T11:55:38.163Z,10.63
2019-01-13T11:59:06.849Z,7.87
2019-01-13T12:02:32.903Z,11.73
2019-01-13T12:05:58.591Z,13.17
2019-01-13T12:09:24.108Z,13.00
2019-01-13T12:12:49.891Z,9.33
2019-01-13T12:16:15.486Z,10.80
2019-01-13T12:19:41.050Z,9.30
2019-01-13T12:23:06.682Z,12.37
2019-01-13T12:26:32.251Z,11.93
2019-01-13T12:29:59.548Z,9.47
2019-01-13T12:33:25.098Z,11.83
2019-01-13T12:36:50.717Z,10.30
2019-01-13T12:40:18.427Z,10.57
2019-01-13T12:43:44.033Z,8.83
2019-01-13T12:47:15.682Z,13.30
2019-01-13T12:50:41.304Z,8.80
2019-01-13T12:54:07.260Z,10.03
2019-01-13T12:57:32.963Z,9.33
2019-01-13T13:00:58.702Z,9.50
2019-01-13T13:04:24.288Z,9.63
2019-01-13T13:07:50.029Z,11.80
2019-01-13T13:11:15.990Z,11.37
2019-01-13T13:14:42.146Z,11.37
2019-01-13T13:18:07.847Z,8.40
2019-01-13T13:21:33.402Z,9.40
2019-01-13T13:24:58.945Z,11.37
2019-01-13T13:28:24.783Z,8.27
2019-01-13T13:31:50.348Z,8.10
2019-01-13T13:35:16.189Z,8.60
2019-01-13T13:38:42.041Z,9.50
2019-01-13T13:42:07.784Z,12.23
2019-01-13T13:45:33.352Z,9.97
2019-01-13T13:48:58.934Z,8.73
2019-01-13T13:52:24.467Z,11.03
2019-01-13T13:55:50.039Z,7.87
2019-01-13T13:59:15.636Z,7.97
2019-01-13T14:02:41.206Z,11.03
2019-01-13T14:06:06.826Z,8.33
2019-01-13T14:09:32.543Z,10.73
2019-01-13T14:12:58.348Z,8.43
2019-01-13T14:16:24.304Z,9.57
2019-01-13T14:19:50.342Z,13.70
2019-01-13T14:23:16.365Z,12.83
2019-01-13T14:26:42.145Z,11.60
2019-01-13T14:30:14.681Z,16.10
2019-01-13T14:33:40.552Z,10.77
2019-01-13T14:37:06.269Z,13.17
2019-01-13T14:40:32.047Z,13.03
2019-01-13T14:43:58.144Z,11.77
2019-01-13T14:47:23.871Z,12.03
2019-01-13T14:50:49.831Z,11.60
2019-01-13T14:54:18.467Z,13.27
2019-01-13T14:57:44.245Z,13.57
2019-01-13T15:01:13.625Z,10.60
2019-01-13T15:04:40.702Z,10.43
2019-01-13T15:08:07.622Z,9.30
2019-01-13T15:11:34.060Z,15.03
2019-01-13T15:15:00.461Z,11.67
2019-01-13T15:18:27.019Z,13.57
2019-01-13T15:21:56.384Z,11.83
2019-01-13T15:25:31.481Z,12.80
2019-01-13T15:28:59.393Z,14.77
2019-01-13T15:32:25.219Z,20.03
2019-01-13T15:35:50.896Z,17.90
2019-01-13T15:39:16.493Z,16.47
2019-01-13T15:42:42.382Z,16.83
2019-01-13T15:46:07.940Z,16.40
2019-01-13T15:49:33.599Z,14.93
2019-01-13T15:52:59.342Z,18.30
2019-01-13T15:56:24.939Z,15.70
2019-01-13T15:59:50.587Z,17.33
2019-01-13T16:03:16.197Z,19.37
2019-01-13T16:06:41.816Z,23.73
2019-01-13T16:10:12.315Z,30.53
2019-01-13T16:13:38.176Z,18.87
2019-01-13T16:17:03.727Z,19.57
2019-01-13T16:20:35.857Z,17.70
2019-01-13T16:24:01.459Z,18.63
2019-01-13T16:27:27.001Z,16.47
2019-01-13T16:30:52.813Z,22.63
2019-01-13T16:34:21.602Z,15.60
2019-01-13T16:37:45.734Z,16.50
2019-01-13T16:41:11.413Z,18.87
2019-01-13T16:44:37.000Z,14.80
2019-01-13T16:48:03.679Z,17.93
2019-01-13T16:51:29.587Z,18.10
2019-01-13T16:54:56.448Z,16.10
2019-01-13T16:58:22.134Z,22.60
2019-01-13T17:01:47.780Z,17.13
2019-01-13T17:05:15.880Z,24.53
2019-01-13T17:08:41.498Z,19.73
2019-01-13T17:12:07.984Z,20.67
2019-01-13T17:15:38.457Z,19.97
2019-01-13T17:19:04.378Z,15.83
2019-01-13T17:22:29.949Z,22.87
2019-01-13T17:25:55.523Z,19.07
2019-01-13T17:29:21.092Z,22.00
2019-01-13T17:32:46.729Z,14.80
2019-01-13T17:36:12.364Z,13.13
2019-01-13T17:39:37.925Z,12.67
2019-01-13T17:43:03.524Z,16.10
2019-01-13T17:46:29.075Z,13.60
2019-01-13T17:49:54.926Z,12.27
2019-01-13T17:53:20.653Z,16.93
2019-01-13T17:56:46.575Z,12.70
2019-01-13T18:00:18.036Z,10.50
2019-01-13T18:03:46.322Z,13.43
2019-01-13T18:07:11.915Z,11.80
2019-01-13T18:10:37.477Z,14.27
2019-01-13T18:14:03.488Z,17.97
2019-01-13T18:17:29.620Z,19.23
2019-01-13T18:20:55.381Z,9.50
2019-01-13T18:24:20.956Z,8.27
2019-01-13T18:31:23.473Z,4.93
2019-01-13T18:35:10.730Z,7.77
2019-01-13T18:39:14.677Z,3.23
2019-01-13T18:42:59.497Z,13.00
2019-01-13T18:46:44.186Z,4.07
2019-01-13T18:50:28.788Z,10.87
2019-01-13T18:54:13.450Z,6.33
2019-01-13T18:57:58.100Z,6.90
2019-01-13T19:05:51.728Z,5.03
2019-01-13T19:14:05.189Z,2.33
2019-01-13T19:25:54.315Z,7.53
2019-01-13T19:33:30.192Z,4.23
2019-01-13T19:41:05.785Z,12.57
2019-01-13T19:45:09.192Z,8.77
2019-01-13T19:48:54.053Z,9.37
2019-01-13T19:52:57.524Z,19.10
2019-01-13T19:56:35.543Z,7.70
2019-01-13T20:01:03.692Z,9.10
2019-01-13T20:04:48.298Z,13.90
2019-01-13T20:12:22.694Z,13.30
2019-01-13T20:16:07.380Z,10.50
2019-01-13T20:19:52.150Z,20.47
2019-01-13T20:23:37.288Z,17.00
2019-01-13T20:27:22.240Z,18.17
2019-01-13T20:39:21.271Z,14.17
2019-01-13T20:43:06.404Z,14.63
2019-01-13T20:46:51.516Z,14.80
2019-01-13T20:50:39.589Z,19.30
2019-01-13T20:54:24.538Z,21.80
2019-01-13T20:58:01.285Z,8.93
2019-01-13T21:01:45.990Z,14.17
2019-01-13T21:05:30.635Z,33.17
2019-01-13T21:09:15.610Z,23.03
2019-01-13T21:13:00.247Z,19.07
2019-01-13T21:17:03.736Z,20.43
2019-01-13T21:20:48.355Z,19.00
2019-01-13T21:24:33.401Z,24.23
2019-01-13T21:32:22.009Z,27.50
2019-01-13T21:36:06.751Z,26.80
2019-01-13T21:39:51.375Z,19.83
2019-01-13T21:47:39.563Z,35.07
2019-01-13T21:51:24.189Z,26.03
2019-01-13T21:55:01.084Z,21.83
2019-01-13T21:58:45.699Z,27.07
2019-01-13T22:02:30.360Z,14.07
2019-01-13T22:06:15.091Z,19.57
2019-01-13T22:09:59.999Z,19.33
2019-01-13T22:13:44.634Z,21.37
2019-01-13T22:17:29.565Z,19.60
2019-01-13T22:21:14.156Z,21.93
2019-01-13T22:24:58.782Z,20.17
2019-01-13T22:28:43.734Z,20.67
2019-01-13T22:32:28.364Z,14.57
2019-01-13T22:36:13.304Z,18.73
2019-01-13T22:39:58.292Z,22.37
2019-01-13T22:43:42.971Z,25.80
2019-01-13T22:47:27.578Z,21.73
2019-01-13T22:51:12.216Z,17.50
2019-01-13T22:54:49.459Z,21.70
2019-01-13T22:58:34.095Z,24.43
2019-01-13T23:02:18.708Z,24.80
2019-01-13T23:06:03.708Z,11.77
2019-01-13T23:09:48.695Z,11.60
2019-01-13T23:13:33.394Z,15.27
2019-01-13T23:17:18.083Z,10.60
2019-01-13T23:21:02.721Z,16.00
2019-01-13T23:24:47.412Z,17.97
2019-01-13T23:28:32.068Z,12.67
2019-01-13T23:32:16.703Z,24.33
2019-01-13T23:36:02.960Z,18.60
2019-01-13T23:39:47.623Z,19.17
2019-01-13T23:43:32.305Z,18.43
2019-01-13T23:47:16.987Z,15.47
2019-01-13T23:51:01.752Z,7.30
2019-01-13T23:54:46.790Z,7.80
2019-01-13T23:58:31.415Z,6.80
